KLEX/LEX METAR and TAF weather

Enter ICAO airport designator
Station Type Date Time Source
KLEX METAR 2018/12/15 03:54 UTC NOAA

KLEX 150354Z AUTO 08007KT 9SM -RA OVC005 10/08 A2993 RMK AO2 SLP134 P0004 T01000083


Station Type Date Time Source
KLEX Decoded METAR 2018/12/15 03:54 UTC NOAA

LEXINGTON BLUE GRASS AIRPORT, KY, United States (KLEX) 38-02N 084-36W 300M
Dec 14, 2018 - 10:54 PM EST / 2018.12.15 0354 UTC
Wind: from the E (080 degrees) at 8 MPH (7 KT):0
Visibility: 9 mile(s):0
Sky conditions: overcast
Weather: light rain
Precipitation last hour: 0.04 inches
Temperature: 50.0 F (10.0 C)
Dew Point: 46.9 F (8.3 C)
Relative Humidity: 89%
Pressure (altimeter): 29.93 in. Hg (1013 hPa)
ob: KLEX 150354Z AUTO 08007KT 9SM -RA OVC005 10/08 A2993 RMK AO2 SLP134 P0004 T01000083
cycle: 4

Station Type Date Time Source
KLEX TAF 2018/12/15 03:57 UTC NOAA

TAF
AMD KLEX 150254Z 1503/1524 07014G21KT 6SM -RA BR BKN006 OVC018
FM150500 07010KT 3SM -RA BR OVC006
FM151900 10005KT P6SM VCSH BKN009 OVC019


Example: see airport list